sensor_id;sensor_type;location;lat;lon;timestamp;temperature;humidity
48998;DHT22;34807;51.456;7.244;2023-01-04T00:00:19;7.30;99.90
48998;DHT22;34807;51.456;7.244;2023-01-04T00:02:44;7.30;99.90
48998;DHT22;34807;51.456;7.244;2023-01-04T00:05:10;7.30;99.90
48998;DHT22;34807;51.456;7.244;2023-01-04T00:07:35;7.30;99.90
48998;DHT22;34807;51.456;7.244;2023-01-04T00:10:01;7.30;99.90
48998;DHT22;34807;51.456;7.244;2023-01-04T00:12:26;7.30;99.90
48998;DHT22;34807;51.456;7.244;2023-01-04T00:14:52;7.30;99.90
48998;DHT22;34807;51.456;7.244;2023-01-04T00:17:17;7.30;99.90
48998;DHT22;34807;51.456;7.244;2023-01-04T00:19:43;7.30;99.90
48998;DHT22;34807;51.456;7.244;2023-01-04T00:22:08;7.30;99.90
48998;DHT22;34807;51.456;7.244;2023-01-04T00:24:33;7.30;99.90
48998;DHT22;34807;51.456;7.244;2023-01-04T00:26:59;7.30;99.90
48998;DHT22;34807;51.456;7.244;2023-01-04T00:29:24;7.30;99.90
48998;DHT22;34807;51.456;7.244;2023-01-04T00:31:50;7.30;99.90
48998;DHT22;34807;51.456;7.244;2023-01-04T00:34:16;7.30;99.90
48998;DHT22;34807;51.456;7.244;2023-01-04T00:36:41;7.30;99.90
48998;DHT22;34807;51.456;7.244;2023-01-04T00:39:08;7.30;99.90
48998;DHT22;34807;51.456;7.244;2023-01-04T00:44:00;7.30;99.90
48998;DHT22;34807;51.456;7.244;2023-01-04T00:46:27;7.30;99.90
48998;DHT22;34807;51.456;7.244;2023-01-04T00:48:53;7.30;99.90
48998;DHT22;34807;51.456;7.244;2023-01-04T00:51:18;7.30;99.90
48998;DHT22;34807;51.456;7.244;2023-01-04T00:53:44;7.30;99.90
48998;DHT22;34807;51.456;7.244;2023-01-04T00:56:09;7.40;99.90
48998;DHT22;34807;51.456;7.244;2023-01-04T00:58:35;7.30;99.90
48998;DHT22;34807;51.456;7.244;2023-01-04T01:01:06;7.30;99.90
48998;DHT22;34807;51.456;7.244;2023-01-04T01:03:32;7.30;99.90
48998;DHT22;34807;51.456;7.244;2023-01-04T01:06:01;7.30;99.90
48998;DHT22;34807;51.456;7.244;2023-01-04T01:08:27;7.30;99.90
48998;DHT22;34807;51.456;7.244;2023-01-04T01:10:53;7.30;99.90
48998;DHT22;34807;51.456;7.244;2023-01-04T01:13:19;7.30;99.90
48998;DHT22;34807;51.456;7.244;2023-01-04T01:15:45;7.30;99.90
48998;DHT22;34807;51.456;7.244;2023-01-04T01:18:10;7.40;99.90
48998;DHT22;34807;51.456;7.244;2023-01-04T01:20:42;7.30;99.90
48998;DHT22;34807;51.456;7.244;2023-01-04T01:23:08;7.40;99.90
48998;DHT22;34807;51.456;7.244;2023-01-04T01:25:34;7.40;99.90
48998;DHT22;34807;51.456;7.244;2023-01-04T01:27:59;7.40;99.90
48998;DHT22;34807;51.456;7.244;2023-01-04T01:30:25;7.40;99.90
48998;DHT22;34807;51.456;7.244;2023-01-04T01:32:50;7.40;99.90
48998;DHT22;34807;51.456;7.244;2023-01-04T01:35:16;7.40;99.90
48998;DHT22;34807;51.456;7.244;2023-01-04T01:37:41;7.40;99.90
48998;DHT22;34807;51.456;7.244;2023-01-04T01:40:07;7.40;99.90
48998;DHT22;34807;51.456;7.244;2023-01-04T01:42:32;7.40;99.90
48998;DHT22;34807;51.456;7.244;2023-01-04T01:47:25;7.40;99.90
48998;DHT22;34807;51.456;7.244;2023-01-04T01:49:52;7.40;99.90
48998;DHT22;34807;51.456;7.244;2023-01-04T01:52:22;7.40;99.90
48998;DHT22;34807;51.456;7.244;2023-01-04T01:54:51;7.40;99.90
48998;DHT22;34807;51.456;7.244;2023-01-04T01:57:18;7.40;99.90
48998;DHT22;34807;51.456;7.244;2023-01-04T01:59:45;7.40;99.90
48998;DHT22;34807;51.456;7.244;2023-01-04T02:02:12;7.40;99.90
48998;DHT22;34807;51.456;7.244;2023-01-04T02:04:39;7.40;99.90
48998;DHT22;34807;51.456;7.244;2023-01-04T02:07:05;7.40;99.90
48998;DHT22;34807;51.456;7.244;2023-01-04T02:09:32;7.40;99.90
48998;DHT22;34807;51.456;7.244;2023-01-04T02:11:57;7.40;99.90
48998;DHT22;34807;51.456;7.244;2023-01-04T02:14:23;7.40;99.90
48998;DHT22;34807;51.456;7.244;2023-01-04T02:35:16;7.50;99.90
48998;DHT22;34807;51.456;7.244;2023-01-04T02:45:53;7.50;99.90
48998;DHT22;34807;51.456;7.244;2023-01-04T02:48:20;7.50;99.90
48998;DHT22;34807;51.456;7.244;2023-01-04T02:51:04;7.50;99.90
48998;DHT22;34807;51.456;7.244;2023-01-04T02:53:39;7.50;99.90
48998;DHT22;34807;51.456;7.244;2023-01-04T02:56:17;7.50;99.90
48998;DHT22;34807;51.456;7.244;2023-01-04T03:01:28;7.50;99.90
48998;DHT22;34807;51.456;7.244;2023-01-04T03:07:10;7.50;99.90
48998;DHT22;34807;51.456;7.244;2023-01-04T03:09:38;7.50;99.90
48998;DHT22;34807;51.456;7.244;2023-01-04T03:12:07;7.50;99.90
48998;DHT22;34807;51.456;7.244;2023-01-04T03:14:54;7.50;99.90
48998;DHT22;34807;51.456;7.244;2023-01-04T03:17:24;7.60;99.90
48998;DHT22;34807;51.456;7.244;2023-01-04T03:19:51;7.60;99.90
48998;DHT22;34807;51.456;7.244;2023-01-04T03:25:06;7.60;99.90
48998;DHT22;34807;51.456;7.244;2023-01-04T03:27:51;7.60;99.90
48998;DHT22;34807;51.456;7.244;2023-01-04T03:30:37;7.60;99.90
48998;DHT22;34807;51.456;7.244;2023-01-04T03:33:23;7.60;99.90
48998;DHT22;34807;51.456;7.244;2023-01-04T03:36:28;7.60;99.90
48998;DHT22;34807;51.456;7.244;2023-01-04T03:39:00;7.60;99.90
48998;DHT22;34807;51.456;7.244;2023-01-04T03:41:47;7.60;99.90
48998;DHT22;34807;51.456;7.244;2023-01-04T03:47:25;7.60;99.90
48998;DHT22;34807;51.456;7.244;2023-01-04T03:50:34;7.60;99.90
48998;DHT22;34807;51.456;7.244;2023-01-04T03:52:57;7.60;99.90
48998;DHT22;34807;51.456;7.244;2023-01-04T03:55:24;7.60;99.90
48998;DHT22;34807;51.456;7.244;2023-01-04T03:57:50;7.60;99.90
48998;DHT22;34807;51.456;7.244;2023-01-04T04:00:16;7.60;99.90
48998;DHT22;34807;51.456;7.244;2023-01-04T04:02:44;7.60;99.90
48998;DHT22;34807;51.456;7.244;2023-01-04T04:05:12;7.60;99.90
48998;DHT22;34807;51.456;7.244;2023-01-04T04:07:58;7.70;99.90
48998;DHT22;34807;51.456;7.244;2023-01-04T04:10:42;7.70;99.90
48998;DHT22;34807;51.456;7.244;2023-01-04T04:13:08;7.60;99.90
48998;DHT22;34807;51.456;7.244;2023-01-04T04:15:33;7.70;99.90
48998;DHT22;34807;51.456;7.244;2023-01-04T04:18:00;7.70;99.90
48998;DHT22;34807;51.456;7.244;2023-01-04T04:20:26;7.70;99.90
48998;DHT22;34807;51.456;7.244;2023-01-04T04:22:51;7.70;99.90
48998;DHT22;34807;51.456;7.244;2023-01-04T04:25:17;7.70;99.90
48998;DHT22;34807;51.456;7.244;2023-01-04T04:27:43;7.70;99.90
48998;DHT22;34807;51.456;7.244;2023-01-04T04:30:08;7.70;99.90
48998;DHT22;34807;51.456;7.244;2023-01-04T04:32:34;7.70;99.90
48998;DHT22;34807;51.456;7.244;2023-01-04T04:34:59;7.70;99.90
48998;DHT22;34807;51.456;7.244;2023-01-04T04:37:25;7.70;99.90
48998;DHT22;34807;51.456;7.244;2023-01-04T04:39:52;7.70;99.90
48998;DHT22;34807;51.456;7.244;2023-01-04T04:42:18;7.70;99.90
48998;DHT22;34807;51.456;7.244;2023-01-04T04:44:43;7.70;99.90
48998;DHT22;34807;51.456;7.244;2023-01-04T04:47:09;7.70;99.90
48998;DHT22;34807;51.456;7.244;2023-01-04T04:49:34;7.70;99.90
48998;DHT22;34807;51.456;7.244;2023-01-04T04:52:00;7.70;99.90
48998;DHT22;34807;51.456;7.244;2023-01-04T04:54:25;7.80;99.90
48998;DHT22;34807;51.456;7.244;2023-01-04T04:56:51;7.80;99.90
48998;DHT22;34807;51.456;7.244;2023-01-04T04:59:16;7.80;99.90
48998;DHT22;34807;51.456;7.244;2023-01-04T05:01:42;7.80;99.90
48998;DHT22;34807;51.456;7.244;2023-01-04T05:04:07;7.80;99.90
48998;DHT22;34807;51.456;7.244;2023-01-04T05:06:33;7.80;99.90
48998;DHT22;34807;51.456;7.244;2023-01-04T05:08:58;7.80;99.90
48998;DHT22;34807;51.456;7.244;2023-01-04T05:11:24;7.80;99.90
48998;DHT22;34807;51.456;7.244;2023-01-04T05:14:08;7.80;99.90
48998;DHT22;34807;51.456;7.244;2023-01-04T05:16:34;7.80;99.90
48998;DHT22;34807;51.456;7.244;2023-01-04T05:19:00;7.80;99.90
48998;DHT22;34807;51.456;7.244;2023-01-04T05:21:25;7.80;99.90
48998;DHT22;34807;51.456;7.244;2023-01-04T05:23:50;7.80;99.90
48998;DHT22;34807;51.456;7.244;2023-01-04T05:26:16;7.80;99.90
48998;DHT22;34807;51.456;7.244;2023-01-04T05:28:41;7.80;99.90
48998;DHT22;34807;51.456;7.244;2023-01-04T05:31:07;7.80;99.90
48998;DHT22;34807;51.456;7.244;2023-01-04T05:33:32;7.90;99.90
48998;DHT22;34807;51.456;7.244;2023-01-04T05:35:59;7.80;99.90
48998;DHT22;34807;51.456;7.244;2023-01-04T05:38:24;7.90;99.90
48998;DHT22;34807;51.456;7.244;2023-01-04T05:40:51;7.80;99.90
48998;DHT22;34807;51.456;7.244;2023-01-04T05:43:17;7.90;99.90
48998;DHT22;34807;51.456;7.244;2023-01-04T05:45:43;7.90;99.90
48998;DHT22;34807;51.456;7.244;2023-01-04T05:48:11;7.90;99.90
48998;DHT22;34807;51.456;7.244;2023-01-04T05:50:36;7.90;99.90
48998;DHT22;34807;51.456;7.244;2023-01-04T05:53:02;7.90;99.90
48998;DHT22;34807;51.456;7.244;2023-01-04T05:55:28;7.90;99.90
48998;DHT22;34807;51.456;7.244;2023-01-04T05:57:53;7.90;99.90
48998;DHT22;34807;51.456;7.244;2023-01-04T06:00:18;7.90;99.90
48998;DHT22;34807;51.456;7.244;2023-01-04T06:02:44;7.90;99.90
48998;DHT22;34807;51.456;7.244;2023-01-04T06:05:10;7.90;99.90
48998;DHT22;34807;51.456;7.244;2023-01-04T06:07:36;8.00;99.90
48998;DHT22;34807;51.456;7.244;2023-01-04T06:10:02;7.90;99.90
48998;DHT22;34807;51.456;7.244;2023-01-04T06:12:28;8.00;99.90
48998;DHT22;34807;51.456;7.244;2023-01-04T06:14:53;8.00;99.90
48998;DHT22;34807;51.456;7.244;2023-01-04T06:17:19;7.90;99.90
48998;DHT22;34807;51.456;7.244;2023-01-04T06:19:45;8.00;99.90
48998;DHT22;34807;51.456;7.244;2023-01-04T06:22:10;8.00;99.90
48998;DHT22;34807;51.456;7.244;2023-01-04T06:24:35;8.00;99.90
48998;DHT22;34807;51.456;7.244;2023-01-04T06:27:01;8.00;99.90
48998;DHT22;34807;51.456;7.244;2023-01-04T06:29:27;8.00;99.90
48998;DHT22;34807;51.456;7.244;2023-01-04T06:31:53;8.00;99.90
48998;DHT22;34807;51.456;7.244;2023-01-04T06:34:18;8.00;99.90
48998;DHT22;34807;51.456;7.244;2023-01-04T06:36:44;8.00;99.90
48998;DHT22;34807;51.456;7.244;2023-01-04T06:39:09;8.00;99.90
48998;DHT22;34807;51.456;7.244;2023-01-04T06:41:35;8.00;99.90
48998;DHT22;34807;51.456;7.244;2023-01-04T06:44:00;8.10;99.90
48998;DHT22;34807;51.456;7.244;2023-01-04T06:46:26;8.10;99.90
48998;DHT22;34807;51.456;7.244;2023-01-04T06:48:51;8.10;99.90
48998;DHT22;34807;51.456;7.244;2023-01-04T06:51:18;8.10;99.90
48998;DHT22;34807;51.456;7.244;2023-01-04T06:53:44;8.10;99.90
48998;DHT22;34807;51.456;7.244;2023-01-04T06:56:09;8.10;99.90
48998;DHT22;34807;51.456;7.244;2023-01-04T06:58:35;8.10;99.90
48998;DHT22;34807;51.456;7.244;2023-01-04T07:01:01;8.10;99.90
48998;DHT22;34807;51.456;7.244;2023-01-04T07:03:26;8.10;99.90
48998;DHT22;34807;51.456;7.244;2023-01-04T07:05:52;8.10;99.90
48998;DHT22;34807;51.456;7.244;2023-01-04T07:08:17;8.10;99.90
48998;DHT22;34807;51.456;7.244;2023-01-04T07:10:43;8.10;99.90
48998;DHT22;34807;51.456;7.244;2023-01-04T07:13:09;8.10;99.90
48998;DHT22;34807;51.456;7.244;2023-01-04T07:15:34;8.10;99.90
48998;DHT22;34807;51.456;7.244;2023-01-04T07:18:00;8.20;99.90
48998;DHT22;34807;51.456;7.244;2023-01-04T07:20:26;8.20;99.90
48998;DHT22;34807;51.456;7.244;2023-01-04T07:22:51;8.20;99.90
48998;DHT22;34807;51.456;7.244;2023-01-04T07:25:17;8.20;99.90
48998;DHT22;34807;51.456;7.244;2023-01-04T07:27:43;8.20;99.90
48998;DHT22;34807;51.456;7.244;2023-01-04T07:30:09;8.20;99.90
48998;DHT22;34807;51.456;7.244;2023-01-04T07:32:34;8.20;99.90
48998;DHT22;34807;51.456;7.244;2023-01-04T07:35:00;8.20;99.90
48998;DHT22;34807;51.456;7.244;2023-01-04T07:37:25;8.20;99.90
48998;DHT22;34807;51.456;7.244;2023-01-04T07:39:51;8.20;99.90
48998;DHT22;34807;51.456;7.244;2023-01-04T07:42:16;8.20;99.90
48998;DHT22;34807;51.456;7.244;2023-01-04T07:44:44;8.20;99.90
48998;DHT22;34807;51.456;7.244;2023-01-04T07:47:09;8.20;99.90
48998;DHT22;34807;51.456;7.244;2023-01-04T07:49:35;8.30;99.90
48998;DHT22;34807;51.456;7.244;2023-01-04T07:52:00;8.30;99.90
48998;DHT22;34807;51.456;7.244;2023-01-04T07:54:26;8.30;99.90
48998;DHT22;34807;51.456;7.244;2023-01-04T07:56:52;8.30;99.90
48998;DHT22;34807;51.456;7.244;2023-01-04T07:59:18;8.30;99.90
48998;DHT22;34807;51.456;7.244;2023-01-04T08:01:45;8.30;99.90
48998;DHT22;34807;51.456;7.244;2023-01-04T08:04:11;8.30;99.90
48998;DHT22;34807;51.456;7.244;2023-01-04T08:06:37;8.30;99.90
48998;DHT22;34807;51.456;7.244;2023-01-04T08:09:03;8.30;99.90
48998;DHT22;34807;51.456;7.244;2023-01-04T08:11:29;8.30;99.90
48998;DHT22;34807;51.456;7.244;2023-01-04T08:13:54;8.30;99.90
48998;DHT22;34807;51.456;7.244;2023-01-04T08:16:30;8.30;99.90
48998;DHT22;34807;51.456;7.244;2023-01-04T08:19:00;8.30;99.90
48998;DHT22;34807;51.456;7.244;2023-01-04T08:21:26;8.30;99.90
48998;DHT22;34807;51.456;7.244;2023-01-04T08:23:52;8.40;99.90
48998;DHT22;34807;51.456;7.244;2023-01-04T08:26:18;8.30;99.90
48998;DHT22;34807;51.456;7.244;2023-01-04T08:28:43;8.40;99.90
48998;DHT22;34807;51.456;7.244;2023-01-04T08:31:10;8.40;99.90
48998;DHT22;34807;51.456;7.244;2023-01-04T08:33:37;8.40;99.90
48998;DHT22;34807;51.456;7.244;2023-01-04T08:36:16;8.40;99.90
48998;DHT22;34807;51.456;7.244;2023-01-04T08:38:41;8.40;99.90
48998;DHT22;34807;51.456;7.244;2023-01-04T08:41:07;8.40;99.90
48998;DHT22;34807;51.456;7.244;2023-01-04T08:43:33;8.40;99.90
48998;DHT22;34807;51.456;7.244;2023-01-04T08:46:01;8.40;99.90
48998;DHT22;34807;51.456;7.244;2023-01-04T08:48:26;8.50;99.90
48998;DHT22;34807;51.456;7.244;2023-01-04T08:50:52;8.50;99.90
48998;DHT22;34807;51.456;7.244;2023-01-04T08:53:17;8.50;99.90
48998;DHT22;34807;51.456;7.244;2023-01-04T08:55:49;8.50;99.90
48998;DHT22;34807;51.456;7.244;2023-01-04T08:58:15;8.50;99.90
48998;DHT22;34807;51.456;7.244;2023-01-04T09:00:40;8.60;99.90
48998;DHT22;34807;51.456;7.244;2023-01-04T09:03:06;8.60;99.90
48998;DHT22;34807;51.456;7.244;2023-01-04T09:05:34;8.60;99.90
48998;DHT22;34807;51.456;7.244;2023-01-04T09:08:00;8.60;99.90
48998;DHT22;34807;51.456;7.244;2023-01-04T09:10:25;8.60;99.90
48998;DHT22;34807;51.456;7.244;2023-01-04T09:12:51;8.70;99.90
48998;DHT22;34807;51.456;7.244;2023-01-04T09:15:16;8.70;99.90
48998;DHT22;34807;51.456;7.244;2023-01-04T09:17:42;8.70;99.90
48998;DHT22;34807;51.456;7.244;2023-01-04T09:20:08;8.70;99.90
48998;DHT22;34807;51.456;7.244;2023-01-04T09:22:34;8.70;99.90
48998;DHT22;34807;51.456;7.244;2023-01-04T09:25:00;8.80;99.90
48998;DHT22;34807;51.456;7.244;2023-01-04T09:27:25;8.80;99.90
48998;DHT22;34807;51.456;7.244;2023-01-04T09:29:51;8.80;99.90
48998;DHT22;34807;51.456;7.244;2023-01-04T09:32:16;8.80;99.90
48998;DHT22;34807;51.456;7.244;2023-01-04T09:34:42;8.80;99.90
48998;DHT22;34807;51.456;7.244;2023-01-04T09:37:07;8.80;99.90
48998;DHT22;34807;51.456;7.244;2023-01-04T09:39:33;8.90;99.90
48998;DHT22;34807;51.456;7.244;2023-01-04T09:41:59;8.80;99.90
48998;DHT22;34807;51.456;7.244;2023-01-04T09:44:32;8.90;99.90
48998;DHT22;34807;51.456;7.244;2023-01-04T09:47:03;8.90;99.90
48998;DHT22;34807;51.456;7.244;2023-01-04T09:49:35;8.90;99.90
48998;DHT22;34807;51.456;7.244;2023-01-04T09:52:04;8.90;99.90
48998;DHT22;34807;51.456;7.244;2023-01-04T09:57:04;8.90;99.90
48998;DHT22;34807;51.456;7.244;2023-01-04T09:59:34;9.00;99.90
48998;DHT22;34807;51.456;7.244;2023-01-04T10:02:02;9.00;99.90
48998;DHT22;34807;51.456;7.244;2023-01-04T10:04:39;9.00;99.90
48998;DHT22;34807;51.456;7.244;2023-01-04T10:07:07;9.00;99.90
48998;DHT22;34807;51.456;7.244;2023-01-04T10:09:34;9.00;99.90
48998;DHT22;34807;51.456;7.244;2023-01-04T10:12:04;9.00;99.90
48998;DHT22;34807;51.456;7.244;2023-01-04T10:17:08;9.00;99.90
48998;DHT22;34807;51.456;7.244;2023-01-04T10:19:42;9.10;99.90
48998;DHT22;34807;51.456;7.244;2023-01-04T10:35:01;9.20;99.90
48998;DHT22;34807;51.456;7.244;2023-01-04T10:37:33;9.20;99.90
48998;DHT22;34807;51.456;7.244;2023-01-04T10:40:00;9.20;99.90
48998;DHT22;34807;51.456;7.244;2023-01-04T10:42:30;9.20;99.90
48998;DHT22;34807;51.456;7.244;2023-01-04T10:47:34;9.20;99.90
48998;DHT22;34807;51.456;7.244;2023-01-04T10:50:04;9.20;99.90
48998;DHT22;34807;51.456;7.244;2023-01-04T10:52:39;9.20;99.90
48998;DHT22;34807;51.456;7.244;2023-01-04T10:57:42;9.20;99.90
48998;DHT22;34807;51.456;7.244;2023-01-04T11:00:10;9.30;99.90
48998;DHT22;34807;51.456;7.244;2023-01-04T11:02:40;9.20;99.90
48998;DHT22;34807;51.456;7.244;2023-01-04T11:05:15;9.30;99.90
48998;DHT22;34807;51.456;7.244;2023-01-04T11:10:12;9.30;99.90
48998;DHT22;34807;51.456;7.244;2023-01-04T11:12:39;9.30;99.90
48998;DHT22;34807;51.456;7.244;2023-01-04T11:15:05;9.30;99.90
48998;DHT22;34807;51.456;7.244;2023-01-04T11:17:31;9.30;99.90
48998;DHT22;34807;51.456;7.244;2023-01-04T11:19:56;9.40;99.90
48998;DHT22;34807;51.456;7.244;2023-01-04T11:22:24;9.30;99.90
48998;DHT22;34807;51.456;7.244;2023-01-04T11:24:53;9.40;99.90
48998;DHT22;34807;51.456;7.244;2023-01-04T11:27:21;9.30;99.90
48998;DHT22;34807;51.456;7.244;2023-01-04T11:29:49;9.40;99.90
48998;DHT22;34807;51.456;7.244;2023-01-04T11:32:23;9.40;99.90
48998;DHT22;34807;51.456;7.244;2023-01-04T11:34:55;9.40;99.90
48998;DHT22;34807;51.456;7.244;2023-01-04T11:40:02;9.50;99.90
48998;DHT22;34807;51.456;7.244;2023-01-04T11:42:34;9.50;99.90
48998;DHT22;34807;51.456;7.244;2023-01-04T11:45:00;9.50;99.90
48998;DHT22;34807;51.456;7.244;2023-01-04T11:47:25;9.50;99.90
48998;DHT22;34807;51.456;7.244;2023-01-04T11:49:53;9.50;99.90
48998;DHT22;34807;51.456;7.244;2023-01-04T11:52:31;9.50;99.90
48998;DHT22;34807;51.456;7.244;2023-01-04T11:57:42;9.50;99.90
48998;DHT22;34807;51.456;7.244;2023-01-04T12:00:08;9.50;99.90
48998;DHT22;34807;51.456;7.244;2023-01-04T12:02:34;9.50;99.90
48998;DHT22;34807;51.456;7.244;2023-01-04T12:04:59;9.60;99.90
48998;DHT22;34807;51.456;7.244;2023-01-04T12:09:50;9.60;99.90
48998;DHT22;34807;51.456;7.244;2023-01-04T12:12:16;9.60;99.90
48998;DHT22;34807;51.456;7.244;2023-01-04T12:14:46;9.60;99.90
48998;DHT22;34807;51.456;7.244;2023-01-04T12:19:41;9.70;99.90
48998;DHT22;34807;51.456;7.244;2023-01-04T12:22:24;9.70;99.90
48998;DHT22;34807;51.456;7.244;2023-01-04T12:24:54;9.70;99.90
48998;DHT22;34807;51.456;7.244;2023-01-04T12:27:21;9.70;99.90
48998;DHT22;34807;51.456;7.244;2023-01-04T12:34:39;9.70;99.90
48998;DHT22;34807;51.456;7.244;2023-01-04T12:37:05;9.70;99.90
48998;DHT22;34807;51.456;7.244;2023-01-04T12:39:43;9.70;99.90
48998;DHT22;34807;51.456;7.244;2023-01-04T13:02:26;9.80;99.90
48998;DHT22;34807;51.456;7.244;2023-01-04T13:04:53;9.80;99.90
48998;DHT22;34807;51.456;7.244;2023-01-04T13:07:21;9.80;99.90
48998;DHT22;34807;51.456;7.244;2023-01-04T13:09:52;9.80;99.90
48998;DHT22;34807;51.456;7.244;2023-01-04T13:15:03;9.80;99.90
48998;DHT22;34807;51.456;7.244;2023-01-04T13:17:35;9.90;99.90
48998;DHT22;34807;51.456;7.244;2023-01-04T13:20:16;9.80;99.90
48998;DHT22;34807;51.456;7.244;2023-01-04T13:22:50;9.80;99.90
48998;DHT22;34807;51.456;7.244;2023-01-04T13:25:15;9.90;99.90
48998;DHT22;34807;51.456;7.244;2023-01-04T13:30:36;9.90;99.90
48998;DHT22;34807;51.456;7.244;2023-01-04T13:33:06;9.90;99.90
48998;DHT22;34807;51.456;7.244;2023-01-04T13:35:32;9.90;99.90
48998;DHT22;34807;51.456;7.244;2023-01-04T13:37:58;9.90;99.90
48998;DHT22;34807;51.456;7.244;2023-01-04T13:40:25;9.90;99.90
48998;DHT22;34807;51.456;7.244;2023-01-04T13:43:12;9.90;99.90
48998;DHT22;34807;51.456;7.244;2023-01-04T13:46:06;9.90;99.90
48998;DHT22;34807;51.456;7.244;2023-01-04T13:48:29;9.90;99.90
48998;DHT22;34807;51.456;7.244;2023-01-04T13:53:28;9.90;99.90
48998;DHT22;34807;51.456;7.244;2023-01-04T13:55:58;9.90;99.90
48998;DHT22;34807;51.456;7.244;2023-01-04T13:58:25;10.00;99.90
48998;DHT22;34807;51.456;7.244;2023-01-04T14:00:55;10.00;99.90
48998;DHT22;34807;51.456;7.244;2023-01-04T14:05:51;10.00;99.90
48998;DHT22;34807;51.456;7.244;2023-01-04T14:08:26;10.00;99.90
48998;DHT22;34807;51.456;7.244;2023-01-04T14:10:54;10.00;99.90
48998;DHT22;34807;51.456;7.244;2023-01-04T14:13:21;10.00;99.90
48998;DHT22;34807;51.456;7.244;2023-01-04T14:16:01;10.00;99.90
48998;DHT22;34807;51.456;7.244;2023-01-04T14:18:28;10.10;99.90
48998;DHT22;34807;51.456;7.244;2023-01-04T14:20:54;10.10;99.90
48998;DHT22;34807;51.456;7.244;2023-01-04T14:23:26;10.00;99.90
48998;DHT22;34807;51.456;7.244;2023-01-04T14:25:52;10.10;99.90
48998;DHT22;34807;51.456;7.244;2023-01-04T14:33:30;10.10;99.90
48998;DHT22;34807;51.456;7.244;2023-01-04T14:36:09;10.10;99.90
48998;DHT22;34807;51.456;7.244;2023-01-04T14:38:36;10.10;99.90
48998;DHT22;34807;51.456;7.244;2023-01-04T14:46:11;10.10;99.90
48998;DHT22;34807;51.456;7.244;2023-01-04T14:48:37;10.10;99.90
48998;DHT22;34807;51.456;7.244;2023-01-04T14:51:02;10.10;99.90
48998;DHT22;34807;51.456;7.244;2023-01-04T14:53:29;10.10;99.90
48998;DHT22;34807;51.456;7.244;2023-01-04T14:55:54;10.10;99.90
48998;DHT22;34807;51.456;7.244;2023-01-04T14:58:20;10.10;99.90
48998;DHT22;34807;51.456;7.244;2023-01-04T15:00:45;10.10;99.90
48998;DHT22;34807;51.456;7.244;2023-01-04T15:03:11;10.10;99.90
48998;DHT22;34807;51.456;7.244;2023-01-04T15:05:36;10.10;99.90
48998;DHT22;34807;51.456;7.244;2023-01-04T15:08:02;10.10;99.90
48998;DHT22;34807;51.456;7.244;2023-01-04T15:10:28;10.10;99.90
48998;DHT22;34807;51.456;7.244;2023-01-04T15:12:54;10.10;99.90
48998;DHT22;34807;51.456;7.244;2023-01-04T15:15:20;10.10;99.90
48998;DHT22;34807;51.456;7.244;2023-01-04T15:17:46;10.10;99.90
48998;DHT22;34807;51.456;7.244;2023-01-04T15:20:11;10.10;99.90
48998;DHT22;34807;51.456;7.244;2023-01-04T15:22:37;10.10;99.90
48998;DHT22;34807;51.456;7.244;2023-01-04T15:25:03;10.20;99.90
48998;DHT22;34807;51.456;7.244;2023-01-04T15:27:28;10.20;99.90
48998;DHT22;34807;51.456;7.244;2023-01-04T15:29:54;10.10;99.90
48998;DHT22;34807;51.456;7.244;2023-01-04T15:32:19;10.20;99.90
48998;DHT22;34807;51.456;7.244;2023-01-04T15:34:47;10.20;99.90
48998;DHT22;34807;51.456;7.244;2023-01-04T15:37:12;10.20;99.90
48998;DHT22;34807;51.456;7.244;2023-01-04T15:39:38;10.20;99.90
48998;DHT22;34807;51.456;7.244;2023-01-04T15:42:03;10.20;99.90
48998;DHT22;34807;51.456;7.244;2023-01-04T15:44:47;10.20;99.90
48998;DHT22;34807;51.456;7.244;2023-01-04T15:47:13;10.20;99.90
48998;DHT22;34807;51.456;7.244;2023-01-04T15:49:38;10.20;99.90
48998;DHT22;34807;51.456;7.244;2023-01-04T15:52:04;10.20;99.90
48998;DHT22;34807;51.456;7.244;2023-01-04T15:54:29;10.20;99.90
48998;DHT22;34807;51.456;7.244;2023-01-04T15:56:55;10.20;99.90
48998;DHT22;34807;51.456;7.244;2023-01-04T15:59:20;10.20;99.90
48998;DHT22;34807;51.456;7.244;2023-01-04T16:01:46;10.20;99.90
48998;DHT22;34807;51.456;7.244;2023-01-04T16:04:12;10.20;99.90
48998;DHT22;34807;51.456;7.244;2023-01-04T16:06:37;10.20;99.90
48998;DHT22;34807;51.456;7.244;2023-01-04T16:09:03;10.20;99.90
48998;DHT22;34807;51.456;7.244;2023-01-04T16:11:29;10.20;99.90
48998;DHT22;34807;51.456;7.244;2023-01-04T16:13:55;10.20;99.90
48998;DHT22;34807;51.456;7.244;2023-01-04T16:16:21;10.20;99.90
48998;DHT22;34807;51.456;7.244;2023-01-04T16:18:49;10.20;99.90
48998;DHT22;34807;51.456;7.244;2023-01-04T16:21:15;10.20;99.90
48998;DHT22;34807;51.456;7.244;2023-01-04T16:23:42;10.20;99.90
48998;DHT22;34807;51.456;7.244;2023-01-04T16:26:08;10.20;99.90
48998;DHT22;34807;51.456;7.244;2023-01-04T16:28:34;10.20;99.90
48998;DHT22;34807;51.456;7.244;2023-01-04T16:31:00;10.30;99.90
48998;DHT22;34807;51.456;7.244;2023-01-04T16:33:26;10.20;99.90
48998;DHT22;34807;51.456;7.244;2023-01-04T16:36:04;10.30;99.90
48998;DHT22;34807;51.456;7.244;2023-01-04T16:38:30;10.30;99.90
48998;DHT22;34807;51.456;7.244;2023-01-04T16:40:56;10.30;99.90
48998;DHT22;34807;51.456;7.244;2023-01-04T16:43:22;10.20;99.90
48998;DHT22;34807;51.456;7.244;2023-01-04T16:45:48;10.30;99.90
48998;DHT22;34807;51.456;7.244;2023-01-04T16:48:13;10.30;99.90
48998;DHT22;34807;51.456;7.244;2023-01-04T16:50:38;10.30;99.90
48998;DHT22;34807;51.456;7.244;2023-01-04T16:53:04;10.30;99.90
48998;DHT22;34807;51.456;7.244;2023-01-04T16:55:30;10.30;99.90
48998;DHT22;34807;51.456;7.244;2023-01-04T16:57:55;10.30;99.90
48998;DHT22;34807;51.456;7.244;2023-01-04T17:00:21;10.30;99.90
48998;DHT22;34807;51.456;7.244;2023-01-04T17:02:48;10.20;99.90
48998;DHT22;34807;51.456;7.244;2023-01-04T17:05:13;10.30;99.90
48998;DHT22;34807;51.456;7.244;2023-01-04T17:07:39;10.30;99.90
48998;DHT22;34807;51.456;7.244;2023-01-04T17:10:04;10.30;99.90
48998;DHT22;34807;51.456;7.244;2023-01-04T17:12:30;10.30;99.90
48998;DHT22;34807;51.456;7.244;2023-01-04T17:14:56;10.20;99.90
48998;DHT22;34807;51.456;7.244;2023-01-04T17:17:22;10.20;99.90
48998;DHT22;34807;51.456;7.244;2023-01-04T17:19:48;10.20;99.90
48998;DHT22;34807;51.456;7.244;2023-01-04T17:22:13;10.20;99.90
48998;DHT22;34807;51.456;7.244;2023-01-04T17:24:39;10.20;99.90
48998;DHT22;34807;51.456;7.244;2023-01-04T17:27:04;10.30;99.90
48998;DHT22;34807;51.456;7.244;2023-01-04T17:29:30;10.20;99.90
48998;DHT22;34807;51.456;7.244;2023-01-04T17:31:55;10.20;99.90
48998;DHT22;34807;51.456;7.244;2023-01-04T17:34:21;10.30;99.90
48998;DHT22;34807;51.456;7.244;2023-01-04T17:36:46;10.30;99.90
48998;DHT22;34807;51.456;7.244;2023-01-04T17:39:12;10.20;99.90
48998;DHT22;34807;51.456;7.244;2023-01-04T17:41:38;10.20;99.90
48998;DHT22;34807;51.456;7.244;2023-01-04T17:44:04;10.20;99.90
48998;DHT22;34807;51.456;7.244;2023-01-04T17:46:33;10.20;99.90
48998;DHT22;34807;51.456;7.244;2023-01-04T17:49:01;10.20;99.90